PWSweather.com
Personal Weather Stations
Station Observations
THAIWX
Pa Daet, Chiang MaiTH 50100

Pa DaetChiang MaiTH 50100

Lat: 18.766158, Lon: 98.97553

Elevation: 1007

Station Type: LaCrosse WS2315

http://www.ThaiWx.yolasite.com/

Latest ConditionsUpdated 4:41:30 AM GMT+07:07 Friday, May 26, 2017
Currently Today's Max Today's Min Today's Average
Temperature 75.9°F24.4°C 80.4°F26.9°C 74.8°F23.8°C 76.3°F24.6°C
Dew Point 75.0°F23.9°C 76.0°F24.4°C 73.3°F22.9°C 74.5°F23.6°C
Winds Calm Calm 2.0 mph WSW3.2 kmh WSW - 0.2 mph 0.3 kmh
Wind Gusts -- 2.0 mph3.2 kmh - -
Humidity 97% 97% 83% 94%
Pressure 29.81 in1009.5 mb 29.84 in1010.5 mb 29.80 in1009.1 mb -
Precipitation - 2.18 in55.4 mm - -
Hour Temp Dew Point Humidity Winds Wind Gusts Pressure Precip Precip Rate Daily Precip Total
04:41 AM 75.9°F24.4°C 75.0°F23.9°C 97% Calm Calm -- 29.81 in1009.5 mb 0.00 in0.0 mm 0.00 in0.0 mm 2.18 in55.4 mm
04:37 AM 75.9°F24.4°C 75.0°F23.9°C 97% Calm Calm -- 29.81 in1009.5 mb 0.00 in0.0 mm 0.00 in0.0 mm 2.18 in55.4 mm
04:30 AM 75.9°F24.4°C 75.0°F23.9°C 97% Calm Calm -- 29.81 in1009.5 mb 0.00 in0.0 mm 0.00 in0.0 mm 2.18 in55.4 mm
04:26 AM 75.9°F24.4°C 75.0°F23.9°C 97% Calm Calm -- 29.81 in1009.5 mb 0.00 in0.0 mm 0.00 in0.0 mm 2.18 in55.4 mm
04:22 AM 75.9°F24.4°C 75.0°F23.9°C 97% Calm Calm -- 29.81 in1009.5 mb 0.00 in0.0 mm 0.00 in0.0 mm 2.18 in55.4 mm
04:15 AM 75.9°F24.4°C 75.0°F23.9°C 97% Calm Calm -- 29.81 in1009.5 mb 0.02 in0.5 mm 0.00 in0.0 mm 2.18 in55.4 mm
04:11 AM 75.9°F24.4°C 75.0°F23.9°C 97% Calm Calm -- 29.81 in1009.5 mb 0.02 in0.5 mm 0.00 in0.0 mm 2.18 in55.4 mm
04:05 AM 75.9°F24.4°C 75.0°F23.9°C 97% Calm Calm -- 29.81 in1009.5 mb 0.02 in0.5 mm 0.00 in0.0 mm 2.18 in55.4 mm
04:00 AM 75.9°F24.4°C 75.0°F23.9°C 97% Calm Calm -- 29.81 in1009.5 mb 0.02 in0.5 mm 0.00 in0.0 mm 2.18 in55.4 mm
03:56 AM 75.9°F24.4°C 75.0°F23.9°C 97% Calm Calm -- 29.81 in1009.5 mb 0.02 in0.5 mm 0.00 in0.0 mm 2.18 in55.4 mm
03:50 AM 75.9°F24.4°C 75.0°F23.9°C 97% Calm Calm -- 29.81 in1009.5 mb 0.04 in1.0 mm 0.00 in0.0 mm 2.18 in55.4 mm
03:45 AM 75.9°F24.4°C 75.0°F23.9°C 97% Calm Calm -- 29.80 in1009.1 mb 0.04 in1.0 mm 0.00 in0.0 mm 2.18 in55.4 mm
03:41 AM 75.9°F24.4°C 75.0°F23.9°C 97% Calm Calm -- 29.81 in1009.5 mb 0.04 in1.0 mm 0.00 in0.0 mm 2.18 in55.4 mm
03:35 AM 75.9°F24.4°C 75.0°F23.9°C 97% Calm Calm -- 29.81 in1009.5 mb 0.04 in1.0 mm 0.00 in0.0 mm 2.18 in55.4 mm
03:30 AM 75.7°F24.3°C 74.8°F23.8°C 97% Calm Calm -- 29.81 in1009.5 mb 0.06 in1.5 mm 0.00 in0.0 mm 2.18 in55.4 mm
03:24 AM 75.9°F24.4°C 75.0°F23.9°C 97% Calm Calm -- 29.81 in1009.5 mb 0.06 in1.5 mm 0.30 in7.6 mm 2.18 in55.4 mm
03:20 AM 75.9°F24.4°C 75.0°F23.9°C 97% Calm Calm -- 29.81 in1009.5 mb 0.04 in1.0 mm 0.00 in0.0 mm 2.16 in54.9 mm
03:13 AM 75.9°F24.4°C 74.7°F23.7°C 96% Calm Calm -- 29.81 in1009.5 mb 0.04 in1.0 mm 0.00 in0.0 mm 2.16 in54.9 mm
03:09 AM 75.9°F24.4°C 74.7°F23.7°C 96% Calm Calm -- 29.81 in1009.5 mb 0.04 in1.0 mm 0.00 in0.0 mm 2.16 in54.9 mm
03:05 AM 75.9°F24.4°C 74.7°F23.7°C 96% Calm Calm -- 29.81 in1009.5 mb 0.04 in1.0 mm 0.00 in0.0 mm 2.16 in54.9 mm
02:58 AM 75.9°F24.4°C 74.7°F23.7°C 96% Calm Calm -- 29.80 in1009.1 mb 0.06 in1.5 mm 0.30 in7.6 mm 2.16 in54.9 mm
02:54 AM 75.7°F24.3°C 74.5°F23.6°C 96% Calm Calm -- 29.80 in1009.1 mb 0.04 in1.0 mm 0.00 in0.0 mm 2.14 in54.4 mm
02:50 AM 75.7°F24.3°C 74.5°F23.6°C 96% Calm Calm -- 29.80 in1009.1 mb 0.06 in1.5 mm 0.00 in0.0 mm 2.14 in54.4 mm
02:43 AM 75.6°F24.2°C 74.3°F23.5°C 96% Calm Calm -- 29.80 in1009.1 mb 0.08 in2.0 mm 0.00 in0.0 mm 2.14 in54.4 mm
02:37 AM 75.4°F24.1°C 73.8°F23.2°C 95% Calm Calm -- 29.80 in1009.1 mb 0.18 in4.6 mm 0.00 in0.0 mm 2.12 in53.8 mm
02:30 AM 75.4°F24.1°C 73.5°F23.1°C 95% Calm Calm -- 29.81 in1009.5 mb 0.29 in7.4 mm 0.00 in0.0 mm 2.12 in53.8 mm
02:26 AM 75.0°F23.9°C 73.5°F23.1°C 95% Calm Calm -- 29.81 in1009.5 mb 0.53 in13.5 mm 0.00 in0.0 mm 2.12 in53.8 mm
02:22 AM 75.0°F23.9°C 73.5°F23.1°C 95% Calm Calm -- 29.81 in1009.5 mb 0.61 in15.5 mm 0.00 in0.0 mm 2.12 in53.8 mm
02:15 AM 74.8°F23.8°C 73.3°F22.9°C 95% Calm Calm -- 29.80 in1009.1 mb 0.71 in18.0 mm 0.00 in0.0 mm 2.12 in53.8 mm
02:11 AM 74.8°F23.8°C 73.3°F22.9°C 95% Calm Calm -- 29.80 in1009.1 mb 0.82 in20.8 mm 0.00 in0.0 mm 2.12 in53.8 mm
02:05 AM 75.0°F23.9°C 73.5°F23.1°C 95% Calm Calm -- 29.80 in1009.1 mb 0.98 in24.9 mm 0.00 in0.0 mm 2.10 in53.3 mm
02:00 AM 75.0°F23.9°C 73.5°F23.1°C 95% Calm Calm -- 29.81 in1009.5 mb 1.04 in26.4 mm 0.00 in0.0 mm 2.10 in53.3 mm
01:52 AM 75.4°F24.1°C 73.8°F23.2°C 95% Calm Calm -- 29.81 in1009.5 mb 1.14 in29.0 mm 0.00 in0.0 mm 2.08 in52.8 mm
01:45 AM 75.6°F24.2°C 74.3°F23.5°C 96% Calm Calm 2.0 mph3.2 kmh 29.81 in1009.5 mb 1.28 in32.5 mm 0.00 in0.0 mm 2.04 in51.8 mm
01:41 AM 75.6°F24.2°C 74.3°F23.5°C 96% 0.7 mph SE1.1 kmh SE 2.0 mph3.2 kmh 29.82 in1009.8 mb 1.49 in37.8 mm 0.00 in0.0 mm 2.00 in50.8 mm
01:37 AM 75.6°F24.2°C 74.3°F23.5°C 96% 2.0 mph S3.2 kmh S 2.0 mph3.2 kmh 29.82 in1009.8 mb 1.65 in41.9 mm 1.37 in34.8 mm 1.89 in48.0 mm
01:30 AM 75.4°F24.1°C 74.0°F23.3°C 95% Calm Calm -- 29.82 in1009.8 mb 1.49 in37.8 mm 0.00 in0.0 mm 1.59 in40.4 mm
01:26 AM 75.7°F24.3°C 74.2°F23.4°C 95% Calm Calm -- 29.83 in1010.2 mb 1.55 in39.4 mm 1.00 in25.4 mm 1.55 in39.4 mm
01:20 AM 75.7°F24.3°C 73.9°F23.3°C 94% Calm Calm 0.7 mph1.1 kmh 29.84 in1010.5 mb 1.45 in36.8 mm 1.20 in30.5 mm 1.40 in35.6 mm
01:16 AM 75.7°F24.3°C 73.9°F23.3°C 94% Calm Calm 0.7 mph1.1 kmh 29.84 in1010.5 mb 1.37 in34.8 mm 1.32 in33.5 mm 1.26 in32.0 mm
01:11 AM 75.7°F24.3°C 73.6°F23.1°C 93% 0.7 mph E1.1 kmh E 0.7 mph1.1 kmh 29.84 in1010.5 mb 1.26 in32.0 mm 1.60 in40.6 mm 1.22 in31.0 mm
01:05 AM 75.9°F24.4°C 73.8°F23.2°C 93% Calm Calm -- 29.83 in1010.2 mb 1.10 in27.9 mm 0.48 in12.2 mm 1.10 in27.9 mm
01:00 AM 75.9°F24.4°C 73.8°F23.2°C 93% Calm Calm 1.8 mph2.9 kmh 29.83 in1010.2 mb 1.06 in26.9 mm 0.13 in3.3 mm 1.02 in25.9 mm
12:54 AM 76.1°F24.5°C 74.0°F23.3°C 93% 1.8 mph WSW2.9 kmh WSW 1.8 mph2.9 kmh 29.83 in1010.2 mb 0.94 in23.9 mm 0.90 in22.9 mm 0.90 in22.9 mm
12:50 AM 76.3°F24.6°C 73.8°F23.2°C 92% Calm Calm 0.7 mph1.1 kmh 29.83 in1010.2 mb 0.88 in22.4 mm 1.80 in45.7 mm 0.83 in21.1 mm
12:43 AM 76.8°F24.9°C 74.1°F23.4°C 91% Calm Calm 0.7 mph1.1 kmh 29.84 in1010.5 mb 0.67 in17.0 mm 3.60 in91.4 mm 0.53 in13.5 mm
12:37 AM 77.5°F25.3°C 74.5°F23.6°C 90% Calm Calm 1.1 mph1.8 kmh 29.83 in1010.2 mb 0.31 in7.9 mm 2.25 in57.2 mm 0.22 in5.6 mm
12:33 AM 78.1°F25.6°C 74.7°F23.7°C 89% Calm Calm 1.1 mph1.8 kmh 29.84 in1010.5 mb 0.16 in4.1 mm 1.20 in30.5 mm 0.12 in3.0 mm
12:26 AM 79.2°F26.2°C 75.3°F24.1°C 88% 0.4 mph WSW0.6 kmh WSW 2.0 mph3.2 kmh 29.83 in1010.2 mb 0.02 in0.5 mm 0.30 in7.6 mm 0.02 in0.5 mm
12:22 AM 79.7°F26.5°C 75.5°F24.2°C 87% 0.7 mph W1.1 kmh W 2.0 mph3.2 kmh 29.83 in1010.2 mb 0.00 in0.0 mm 0.00 in0.0 mm 0.00 in0.0 mm
12:18 AM 80.2°F26.8°C 76.0°F24.4°C 87% 2.0 mph WSW3.2 kmh WSW 2.0 mph3.2 kmh 29.83 in1010.2 mb 0.00 in0.0 mm 0.00 in0.0 mm 0.00 in0.0 mm
12:11 AM 80.4°F26.9°C 75.5°F24.2°C 85% 0.7 mph WSW1.1 kmh WSW 1.3 mph2.1 kmh 29.83 in1010.2 mb 0.00 in0.0 mm 0.00 in0.0 mm 0.00 in0.0 mm
12:07 AM 80.4°F26.9°C 75.1°F23.9°C 84% 1.3 mph WSW2.1 kmh WSW 1.3 mph2.1 kmh 29.82 in1009.8 mb 0.00 in0.0 mm 0.00 in0.0 mm 0.00 in0.0 mm
12:03 AM 80.4°F26.9°C 74.8°F23.8°C 83% Calm Calm 1.3 mph2.1 kmh 29.83 in1010.2 mb 0.00 in0.0 mm 0.00 in0.0 mm 0.00 in0.0 mm